Time;durP1;ratioP1;P1;durP2;ratioP2;P2;SDS_P1;SDS_P2;PMS_P1;PMS_P2;Temp;Humidity;BMP_temperature;BMP_pressure;BME280_temperature;BME280_humidity;BME280_pressure;Samples;Min_cycle;Max_cycle;Signal;HPM_P1;HPM_P2
2022/07/07 00:02:18;;;;;;;0.65;0.60;;;18.50;99.90;;;;;;5013443;28;20606;-50
2022/07/07 00:04:44;;;;;;;0.63;0.50;;;18.60;99.90;;;;;;5013417;28;20209;-51
2022/07/07 00:07:10;;;;;;;0.70;0.70;;;18.60;99.90;;;;;;5013791;28;20204;-49
2022/07/07 00:09:37;;;;;;;0.80;0.80;;;18.70;99.90;;;;;;5013320;28;20724;-49
2022/07/07 00:12:03;;;;;;;2.55;0.50;;;18.70;99.90;;;;;;5013558;28;20173;-50
2022/07/07 00:14:29;;;;;;;0.93;0.73;;;18.70;99.90;;;;;;5013381;28;20177;-49
2022/07/07 00:16:56;;;;;;;0.47;0.47;;;18.70;99.90;;;;;;5013292;28;20228;-50
2022/07/07 00:19:23;;;;;;;0.85;0.60;;;18.60;99.90;;;;;;5013541;28;20169;-49
2022/07/07 00:21:49;;;;;;;0.80;0.65;;;18.50;99.90;;;;;;4996114;28;20180;-49
2022/07/07 00:24:14;;;;;;;0.40;0.40;;;18.50;99.90;;;;;;5013429;28;20573;-49
2022/07/07 00:26:40;;;;;;;0.50;0.50;;;18.60;99.90;;;;;;5013409;28;20192;-49
2022/07/07 00:29:06;;;;;;;0.45;0.45;;;18.70;99.90;;;;;;4995941;28;20177;-49
2022/07/07 00:31:32;;;;;;;0.57;0.40;;;18.70;99.90;;;;;;5013300;28;20169;-50
2022/07/07 00:33:58;;;;;;;1.10;0.98;;;18.80;99.90;;;;;;5013418;28;20267;-49
2022/07/07 00:36:24;;;;;;;0.75;0.70;;;18.70;99.90;;;;;;5013424;28;20258;-49
2022/07/07 00:38:50;;;;;;;0.60;0.60;;;18.80;99.90;;;;;;4995808;28;20179;-49
2022/07/07 00:41:15;;;;;;;0.95;0.77;;;18.80;99.90;;;;;;5013136;28;20274;-50
2022/07/07 00:43:42;;;;;;;0.70;0.50;;;18.80;99.90;;;;;;4995734;28;20228;-50
2022/07/07 00:46:08;;;;;;;0.95;0.80;;;18.70;99.90;;;;;;5013198;28;20185;-50
2022/07/07 00:48:36;;;;;;;0.50;0.47;;;18.70;99.90;;;;;;4997351;28;20173;-50
2022/07/07 00:51:04;;;;;;;0.50;0.50;;;18.70;99.90;;;;;;5017000;28;20177;-50
2022/07/07 00:53:30;;;;;;;0.95;0.60;;;18.70;99.90;;;;;;5016906;28;20172;-50
2022/07/07 00:55:55;;;;;;;0.50;0.50;;;18.70;99.90;;;;;;5016940;28;20173;-50
2022/07/07 00:58:21;;;;;;;0.70;0.70;;;18.70;99.90;;;;;;5016684;28;20196;-50
2022/07/07 01:00:48;;;;;;;0.60;0.60;;;18.70;99.90;;;;;;5016215;28;20250;-50
2022/07/07 01:03:13;;;;;;;0.65;0.55;;;18.70;99.90;;;;;;5016744;28;20216;-49
2022/07/07 01:05:47;;;;;;;0.70;0.65;;;18.70;99.90;;;;;;5016591;28;20181;-51
2022/07/07 01:08:15;;;;;;;0.40;0.38;;;18.80;99.90;;;;;;5016723;28;20172;-49
2022/07/07 01:10:41;;;;;;;1.00;0.80;;;18.70;99.90;;;;;;5016475;28;20181;-50
2022/07/07 01:13:07;;;;;;;1.02;0.60;;;18.80;99.90;;;;;;5016365;28;20519;-49
2022/07/07 01:15:33;;;;;;;0.98;0.80;;;18.80;99.90;;;;;;5016569;28;20180;-51
2022/07/07 01:17:59;;;;;;;0.70;0.70;;;18.70;99.90;;;;;;5016560;28;20547;-50
2022/07/07 01:20:26;;;;;;;0.88;0.65;;;18.70;99.90;;;;;;5016426;28;20176;-49
2022/07/07 01:22:52;;;;;;;0.85;0.75;;;18.80;99.90;;;;;;5016269;28;20319;-50
2022/07/07 01:25:19;;;;;;;0.77;0.70;;;18.70;99.90;;;;;;5016269;28;20181;-51
2022/07/07 01:27:44;;;;;;;0.85;0.77;;;18.70;99.90;;;;;;5016101;28;20182;-49
2022/07/07 01:30:11;;;;;;;1.15;0.80;;;18.80;99.90;;;;;;5016414;28;20181;-54
2022/07/07 01:32:37;;;;;;;0.50;0.50;;;18.80;99.90;;;;;;5016285;28;20235;-49
2022/07/07 01:35:03;;;;;;;0.70;0.70;;;18.80;99.90;;;;;;5016530;28;20180;-49
2022/07/07 01:37:29;;;;;;;2.00;0.95;;;18.80;99.90;;;;;;5016346;28;20180;-50
2022/07/07 01:39:55;;;;;;;0.85;0.77;;;18.80;99.90;;;;;;5015895;28;20634;-52
2022/07/07 01:42:21;;;;;;;0.63;0.60;;;18.80;99.90;;;;;;4998187;28;20184;-50
2022/07/07 01:44:51;;;;;;;0.60;0.60;;;18.90;99.90;;;;;;5016035;28;20252;-50
2022/07/07 01:47:18;;;;;;;0.80;0.70;;;18.80;99.90;;;;;;4998947;28;20250;-52
2022/07/07 01:49:44;;;;;;;0.98;0.50;;;18.90;99.90;;;;;;5015821;28;20661;-53
2022/07/07 01:52:10;;;;;;;1.20;0.73;;;18.80;99.90;;;;;;4998179;28;20208;-50
2022/07/07 01:54:37;;;;;;;0.70;0.70;;;18.80;99.90;;;;;;4998578;28;20588;-51
2022/07/07 01:57:04;;;;;;;1.35;0.80;;;18.80;99.90;;;;;;5015872;28;20176;-53
2022/07/07 01:59:29;;;;;;;0.57;0.57;;;18.80;99.90;;;;;;5015508;28;20279;-53
2022/07/07 02:01:55;;;;;;;1.15;0.77;;;18.90;99.90;;;;;;5015733;28;20266;-51
2022/07/07 02:04:21;;;;;;;1.55;0.90;;;18.90;99.90;;;;;;5015558;28;20201;-53
2022/07/07 02:06:47;;;;;;;1.25;0.73;;;18.90;99.90;;;;;;5015501;28;20181;-53
2022/07/07 02:09:13;;;;;;;0.52;0.50;;;18.80;99.90;;;;;;5015391;28;20184;-51
2022/07/07 02:11:39;;;;;;;1.00;0.90;;;18.90;99.90;;;;;;5015307;28;20259;-50
2022/07/07 02:14:04;;;;;;;0.80;0.80;;;18.80;99.90;;;;;;5015527;28;20184;-51
2022/07/07 02:16:31;;;;;;;0.63;0.63;;;18.90;99.90;;;;;;5015476;28;20176;-53
2022/07/07 02:18:59;;;;;;;1.70;0.80;;;18.80;99.90;;;;;;5015249;28;20185;-51
2022/07/07 02:21:25;;;;;;;1.35;0.98;;;18.80;99.90;;;;;;5015207;28;20185;-52
2022/07/07 02:23:53;;;;;;;0.95;0.80;;;18.80;99.90;;;;;;5015019;28;20335;-52
2022/07/07 02:26:19;;;;;;;0.52;0.50;;;18.80;99.90;;;;;;5015053;28;20180;-50
2022/07/07 02:28:45;;;;;;;0.65;0.60;;;18.80;99.90;;;;;;5015227;28;20700;-50
2022/07/07 02:31:11;;;;;;;0.80;0.70;;;18.90;99.90;;;;;;5015125;28;20641;-52
2022/07/07 02:33:37;;;;;;;1.25;0.70;;;18.90;99.90;;;;;;5014983;28;20676;-51
2022/07/07 02:36:04;;;;;;;1.35;1.00;;;18.90;99.90;;;;;;4997553;28;20172;-52
2022/07/07 02:38:31;;;;;;;0.80;0.63;;;18.90;99.90;;;;;;4981373;28;20177;-50
2022/07/07 02:40:57;;;;;;;0.65;0.65;;;18.90;99.90;;;;;;5014793;28;20177;-49
2022/07/07 02:43:23;;;;;;;1.10;0.80;;;18.90;99.90;;;;;;5014842;28;20284;-51
2022/07/07 02:45:49;;;;;;;0.90;0.57;;;18.90;99.90;;;;;;5014772;28;20177;-51
2022/07/07 02:48:20;;;;;;;1.20;0.90;;;18.90;99.90;;;;;;5014769;28;20173;-49
2022/07/07 02:50:46;;;;;;;0.73;0.73;;;18.90;99.90;;;;;;5014722;28;20177;-49
2022/07/07 02:53:13;;;;;;;1.17;0.75;;;18.80;99.90;;;;;;5014801;28;20185;-50
2022/07/07 02:55:39;;;;;;;0.68;0.40;;;18.80;99.90;;;;;;5014822;28;20179;-49
2022/07/07 02:58:07;;;;;;;0.60;0.60;;;18.80;99.90;;;;;;5014465;28;20204;-49
2022/07/07 03:00:33;;;;;;;0.63;0.43;;;18.80;99.90;;;;;;5014484;28;20188;-49
2022/07/07 03:03:00;;;;;;;0.73;0.63;;;18.90;99.90;;;;;;5014374;28;20208;-50
2022/07/07 03:05:27;;;;;;;0.38;0.38;;;18.90;99.90;;;;;;4997028;28;20172;-50
2022/07/07 03:07:53;;;;;;;0.20;0.20;;;18.90;99.90;;;;;;5014188;28;20239;-49
2022/07/07 03:10:18;;;;;;;0.52;0.52;;;18.90;99.90;;;;;;4996687;28;20189;-50
2022/07/07 03:12:44;;;;;;;0.40;0.40;;;18.90;99.90;;;;;;5014212;28;20231;-49
2022/07/07 03:15:10;;;;;;;0.50;0.50;;;18.90;99.90;;;;;;5014170;28;20602;-51
2022/07/07 03:17:40;;;;;;;0.55;0.30;;;19.00;99.90;;;;;;5014075;28;20534;-49
2022/07/07 03:20:06;;;;;;;0.30;0.30;;;18.90;99.90;;;;;;5014133;28;20189;-49
2022/07/07 03:22:32;;;;;;;0.30;0.30;;;18.90;99.90;;;;;;5013960;28;20184;-50
2022/07/07 03:24:57;;;;;;;0.35;0.30;;;18.80;99.90;;;;;;5014254;28;20189;-49
2022/07/07 03:27:23;;;;;;;0.43;0.43;;;18.90;99.90;;;;;;5014153;28;20175;-49
2022/07/07 03:29:51;;;;;;;0.63;0.63;;;18.80;99.90;;;;;;5013923;28;20315;-50
2022/07/07 03:32:17;;;;;;;0.35;0.35;;;18.80;99.90;;;;;;5013915;28;20176;-49
2022/07/07 03:34:43;;;;;;;0.40;0.40;;;18.70;99.90;;;;;;5013817;28;20639;-53
2022/07/07 03:37:08;;;;;;;0.30;0.30;;;18.60;99.90;;;;;;5013807;28;20183;-49
2022/07/07 03:39:34;;;;;;;0.28;0.28;;;18.40;99.90;;;;;;5014039;28;20180;-48
2022/07/07 03:42:00;;;;;;;0.30;0.30;;;18.30;99.90;;;;;;5013935;28;20184;-48
2022/07/07 03:44:25;;;;;;;0.30;0.30;;;18.30;99.90;;;;;;5013735;28;20216;-49
2022/07/07 03:46:51;;;;;;;1.17;0.35;;;18.20;99.90;;;;;;4996285;28;20176;-49
2022/07/07 03:49:17;;;;;;;0.40;0.40;;;18.20;99.90;;;;;;5013640;28;20177;-53
2022/07/07 03:51:42;;;;;;;0.95;0.40;;;18.20;99.90;;;;;;5013551;28;20227;-49
2022/07/07 03:54:09;;;;;;;0.38;0.38;;;18.20;99.90;;;;;;5013600;28;20177;-49
2022/07/07 03:56:35;;;;;;;0.57;0.40;;;18.20;99.90;;;;;;5013718;28;20204;-49
2022/07/07 03:59:01;;;;;;;0.40;0.40;;;18.20;99.90;;;;;;5013586;28;20211;-49
2022/07/07 04:01:27;;;;;;;0.52;0.52;;;18.00;99.90;;;;;;4995892;28;20201;-49
2022/07/07 04:03:52;;;;;;;0.40;0.40;;;18.00;99.90;;;;;;5013464;28;20292;-49
2022/07/07 04:06:18;;;;;;;0.32;0.32;;;18.00;99.90;;;;;;5013435;28;20187;-49
2022/07/07 04:08:44;;;;;;;0.73;0.40;;;18.00;99.90;;;;;;5013472;28;20175;-50
2022/07/07 04:11:09;;;;;;;0.38;0.25;;;18.10;99.90;;;;;;5013597;28;20338;-49
2022/07/07 04:13:35;;;;;;;0.50;0.50;;;18.10;99.90;;;;;;5013516;28;20302;-49
2022/07/07 04:16:00;;;;;;;0.30;0.30;;;18.10;99.90;;;;;;5013503;28;20634;-50
2022/07/07 04:18:26;;;;;;;0.20;0.20;;;18.10;99.90;;;;;;5013351;28;20185;-51
2022/07/07 04:20:52;;;;;;;0.30;0.30;;;18.00;99.90;;;;;;5013348;28;20199;-49
2022/07/07 04:23:18;;;;;;;0.50;0.40;;;18.10;99.90;;;;;;5016674;28;20569;-52
2022/07/07 04:25:44;;;;;;;0.28;0.28;;;18.10;99.90;;;;;;5017481;28;20185;-49
2022/07/07 04:28:10;;;;;;;0.65;0.40;;;18.10;99.90;;;;;;5017414;28;20176;-52
2022/07/07 04:30:35;;;;;;;0.30;0.30;;;18.10;99.90;;;;;;5017566;28;20208;-51
2022/07/07 04:33:01;;;;;;;0.45;0.38;;;18.10;99.90;;;;;;5017227;28;20219;-50
2022/07/07 04:35:26;;;;;;;0.30;0.30;;;18.10;99.90;;;;;;5017114;28;20177;-50
2022/07/07 04:37:52;;;;;;;0.40;0.40;;;18.10;99.90;;;;;;5017294;28;20538;-48
2022/07/07 04:40:18;;;;;;;0.40;0.40;;;18.20;99.90;;;;;;5017041;28;20177;-49
2022/07/07 04:42:43;;;;;;;0.28;0.28;;;18.20;99.90;;;;;;5017198;28;20200;-50
2022/07/07 04:45:10;;;;;;;0.22;0.22;;;18.20;99.90;;;;;;5017003;28;20189;-49
2022/07/07 04:47:43;;;;;;;0.32;0.32;;;18.20;99.90;;;;;;5016931;28;20184;-49
2022/07/07 04:50:10;;;;;;;0.40;0.40;;;18.20;99.90;;;;;;5016848;28;20276;-50
2022/07/07 04:52:36;;;;;;;0.30;0.20;;;18.20;99.90;;;;;;5016786;28;20542;-51
2022/07/07 04:55:02;;;;;;;0.40;0.40;;;18.20;99.90;;;;;;5016935;28;20172;-49
2022/07/07 04:57:27;;;;;;;0.32;0.32;;;18.30;99.90;;;;;;5016812;28;20169;-51
2022/07/07 04:59:53;;;;;;;0.75;0.40;;;18.20;99.90;;;;;;5016533;28;20193;-54
2022/07/07 05:02:19;;;;;;;0.30;0.30;;;18.20;99.90;;;;;;5016059;28;20188;-54
2022/07/07 05:04:44;;;;;;;0.40;0.40;;;18.10;99.90;;;;;;5016693;28;20235;-50
2022/07/07 05:07:10;;;;;;;0.55;0.20;;;17.90;99.90;;;;;;5016682;28;20199;-49
2022/07/07 05:09:36;;;;;;;0.30;0.30;;;17.30;99.90;;;;;;5016492;28;20185;-52
2022/07/07 05:12:03;;;;;;;0.10;0.10;;;17.10;99.90;;;;;;5016529;28;20173;-50
2022/07/07 05:14:28;;;;;;;0.25;0.25;;;16.90;99.90;;;;;;4998924;28;20534;-52
2022/07/07 05:16:55;;;;;;;0.10;0.10;;;16.70;99.90;;;;;;5016344;28;20177;-51
2022/07/07 05:19:21;;;;;;;0.32;0.10;;;16.60;99.90;;;;;;5016331;28;20541;-53
2022/07/07 05:21:47;;;;;;;0.00;0.00;;;16.60;99.90;;;;;;5014166;28;20180;-54
2022/07/07 05:24:12;;;;;;;0.08;0.08;;;16.60;99.90;;;;;;5013207;28;20260;-53
2022/07/07 05:26:38;;;;;;;0.10;0.10;;;16.40;99.90;;;;;;5013442;28;20177;-55
2022/07/07 05:29:03;;;;;;;0.10;0.05;;;16.40;99.90;;;;;;5014193;28;20519;-53
2022/07/07 05:31:29;;;;;;;0.30;0.10;;;16.40;99.90;;;;;;5015636;28;20173;-52
2022/07/07 05:33:55;;;;;;;0.00;0.00;;;16.50;99.90;;;;;;5015534;28;20188;-50
2022/07/07 05:36:21;;;;;;;0.10;0.10;;;16.60;99.90;;;;;;5016161;28;20231;-50
2022/07/07 05:38:46;;;;;;;0.10;0.10;;;16.60;99.90;;;;;;5016129;28;20645;-53
2022/07/07 05:41:12;;;;;;;0.10;0.10;;;16.80;99.90;;;;;;5015955;28;20184;-53
2022/07/07 05:43:38;;;;;;;0.00;0.00;;;16.90;99.90;;;;;;4998571;28;20196;-54
2022/07/07 05:46:04;;;;;;;0.10;0.10;;;17.00;99.90;;;;;;5015835;28;20188;-53
2022/07/07 05:48:29;;;;;;;0.10;0.10;;;17.10;99.90;;;;;;4998663;28;20169;-53
2022/07/07 05:50:55;;;;;;;0.22;0.10;;;17.10;99.90;;;;;;4998433;28;20177;-53
2022/07/07 05:53:21;;;;;;;0.55;0.35;;;17.10;99.90;;;;;;4998706;28;20185;-53
2022/07/07 05:55:47;;;;;;;0.00;0.00;;;17.10;99.90;;;;;;5015870;28;20242;-54
2022/07/07 05:58:13;;;;;;;0.10;0.10;;;17.10;99.90;;;;;;5015759;28;20180;-51
2022/07/07 06:00:38;;;;;;;0.17;0.17;;;17.20;99.90;;;;;;5015268;28;20203;-53
2022/07/07 06:03:04;;;;;;;0.10;0.10;;;17.40;99.90;;;;;;4997872;28;20262;-51
2022/07/07 06:05:30;;;;;;;0.10;0.10;;;17.60;99.90;;;;;;5015644;28;20184;-49
2022/07/07 06:07:55;;;;;;;0.47;0.13;;;17.80;99.90;;;;;;4982020;28;20529;-49
2022/07/07 06:10:21;;;;;;;0.20;0.20;;;17.70;99.90;;;;;;4998058;28;20173;-51
2022/07/07 06:12:53;;;;;;;0.32;0.30;;;17.90;99.90;;;;;;5015528;28;20642;-51
2022/07/07 06:15:20;;;;;;;1.10;0.22;;;17.80;99.90;;;;;;5015296;28;20184;-51
2022/07/07 06:17:47;;;;;;;0.55;0.10;;;17.70;99.90;;;;;;5015443;28;20211;-51
2022/07/07 06:20:13;;;;;;;0.15;0.15;;;17.80;99.90;;;;;;5013888;28;20223;-52
2022/07/07 06:22:39;;;;;;;0.20;0.20;;;17.80;99.90;;;;;;5015232;28;20531;-50
2022/07/07 06:25:07;;;;;;;0.38;0.20;;;17.80;99.90;;;;;;5015135;28;20177;-51
2022/07/07 06:27:33;;;;;;;0.15;0.10;;;17.80;99.90;;;;;;5015120;28;20187;-50
2022/07/07 06:29:58;;;;;;;0.80;0.20;;;17.80;99.90;;;;;;5015236;28;20259;-50
2022/07/07 06:32:24;;;;;;;0.10;0.10;;;17.70;99.90;;;;;;5015201;28;20193;-53
2022/07/07 06:34:50;;;;;;;0.20;0.20;;;17.70;99.90;;;;;;4997737;28;20204;-53
2022/07/07 06:37:15;;;;;;;0.00;0.00;;;17.60;99.90;;;;;;5014842;28;20223;-50
2022/07/07 06:39:41;;;;;;;0.73;0.30;;;17.50;99.90;;;;;;5015069;28;20208;-50
2022/07/07 06:42:07;;;;;;;0.10;0.10;;;17.60;99.90;;;;;;5014868;28;20192;-50
2022/07/07 06:44:33;;;;;;;0.20;0.20;;;17.60;99.90;;;;;;5014620;28;20215;-49
2022/07/07 06:46:59;;;;;;;0.13;0.13;;;17.70;99.90;;;;;;5014017;28;20642;-53
2022/07/07 06:49:25;;;;;;;0.60;0.10;;;17.80;99.90;;;;;;5014753;28;20169;-50
2022/07/07 06:51:51;;;;;;;0.40;0.10;;;17.80;99.90;;;;;;5014762;28;20172;-50
2022/07/07 06:54:17;;;;;;;0.73;0.22;;;17.80;99.90;;;;;;4997152;28;20187;-54
2022/07/07 06:56:42;;;;;;;0.10;0.10;;;17.80;99.90;;;;;;4997069;28;20176;-53
2022/07/07 06:59:08;;;;;;;0.30;0.30;;;17.70;99.90;;;;;;5014297;28;20184;-50
2022/07/07 07:01:34;;;;;;;0.10;0.10;;;17.60;99.90;;;;;;4997129;28;20267;-51
2022/07/07 07:04:00;;;;;;;0.10;0.10;;;17.80;99.90;;;;;;4997296;28;20316;-50
2022/07/07 07:06:28;;;;;;;0.10;0.10;;;17.70;99.90;;;;;;4997091;28;20188;-53
2022/07/07 07:08:58;;;;;;;0.20;0.10;;;17.90;99.90;;;;;;4997324;28;20234;-50
2022/07/07 07:11:25;;;;;;;1.70;0.40;;;18.00;99.90;;;;;;4997040;28;20176;-50
2022/07/07 07:13:50;;;;;;;1.58;0.50;;;18.10;99.90;;;;;;4996555;28;20180;-52
2022/07/07 07:16:17;;;;;;;0.88;0.38;;;18.30;99.90;;;;;;5014365;28;20705;-51
2022/07/07 07:18:43;;;;;;;1.60;0.98;;;18.70;99.90;;;;;;5014387;28;20268;-49
2022/07/07 07:21:09;;;;;;;0.20;0.20;;;18.90;99.90;;;;;;4996785;28;20180;-49
2022/07/07 07:23:37;;;;;;;0.43;0.20;;;19.20;99.90;;;;;;5014037;28;20226;-51
2022/07/07 07:26:06;;;;;;;0.38;0.30;;;19.40;99.90;;;;;;4996705;28;20234;-53
2022/07/07 07:28:33;;;;;;;0.65;0.20;;;19.40;99.90;;;;;;5014382;28;20271;-50
2022/07/07 07:30:59;;;;;;;0.15;0.15;;;19.30;99.90;;;;;;4996760;28;20177;-50
2022/07/07 07:33:25;;;;;;;1.25;0.20;;;19.10;99.90;;;;;;5014112;28;20179;-52
2022/07/07 07:35:50;;;;;;;0.17;0.10;;;18.90;99.90;;;;;;5013994;28;20215;-53
2022/07/07 07:38:16;;;;;;;0.73;0.28;;;19.20;99.90;;;;;;4996371;28;20254;-52
2022/07/07 07:40:42;;;;;;;1.45;0.57;;;19.10;99.90;;;;;;4996329;28;20642;-52
2022/07/07 07:43:07;;;;;;;0.28;0.10;;;19.40;99.90;;;;;;5013950;28;20208;-54
2022/07/07 07:45:33;;;;;;;0.20;0.20;;;19.50;99.90;;;;;;5013804;28;20208;-53
2022/07/07 07:48:02;;;;;;;0.30;0.22;;;19.70;99.90;;;;;;5013904;28;20633;-50
2022/07/07 07:50:29;;;;;;;0.28;0.20;;;19.90;99.90;;;;;;5013798;28;20191;-53
2022/07/07 07:52:56;;;;;;;0.47;0.25;;;19.90;99.90;;;;;;5013638;28;20279;-50
2022/07/07 07:55:22;;;;;;;1.17;0.30;;;19.60;99.90;;;;;;5013530;28;20303;-53
2022/07/07 07:57:49;;;;;;;1.52;0.15;;;19.10;99.90;;;;;;5013519;28;20173;-51
2022/07/07 08:00:18;;;;;;;0.32;0.20;;;18.60;99.90;;;;;;5013681;28;20196;-54
2022/07/07 08:02:44;;;;;;;0.85;0.20;;;18.30;99.90;;;;;;5013564;28;20167;-52
2022/07/07 08:05:11;;;;;;;0.80;0.30;;;18.30;99.90;;;;;;5013588;28;20212;-52
2022/07/07 08:07:37;;;;;;;0.15;0.15;;;18.20;99.90;;;;;;4996006;28;20180;-53
2022/07/07 08:10:03;;;;;;;0.28;0.28;;;18.20;99.90;;;;;;5013445;28;20230;-53
2022/07/07 08:12:29;;;;;;;0.10;0.10;;;18.30;99.90;;;;;;5013317;28;20169;-52
2022/07/07 08:14:55;;;;;;;0.10;0.10;;;18.30;99.90;;;;;;5013561;28;20226;-53
2022/07/07 08:17:21;;;;;;;1.95;0.55;;;18.00;99.90;;;;;;4996081;28;20541;-53
2022/07/07 08:19:47;;;;;;;0.10;0.10;;;17.60;99.90;;;;;;5013486;28;20172;-52
2022/07/07 08:22:13;;;;;;;0.00;0.00;;;17.20;99.90;;;;;;4995969;28;20184;-52
2022/07/07 08:24:39;;;;;;;0.00;0.00;;;17.00;99.90;;;;;;5013145;28;20215;-49
2022/07/07 08:27:05;;;;;;;0.15;0.10;;;17.00;99.90;;;;;;5013510;28;20177;-50
2022/07/07 08:29:31;;;;;;;0.10;0.10;;;17.10;99.90;;;;;;5013334;28;20176;-50
2022/07/07 08:31:56;;;;;;;0.10;0.10;;;17.20;99.90;;;;;;5013310;28;20173;-51
2022/07/07 08:34:23;;;;;;;0.15;0.08;;;17.50;99.90;;;;;;5013578;28;20646;-51
2022/07/07 08:36:49;;;;;;;0.15;0.10;;;17.70;99.90;;;;;;4995572;28;20181;-52
2022/07/07 08:39:14;;;;;;;0.10;0.10;;;18.00;99.90;;;;;;5013413;28;20199;-51
2022/07/07 08:41:42;;;;;;;0.03;0.03;;;18.10;99.90;;;;;;5013211;28;20177;-50
2022/07/07 08:44:08;;;;;;;1.00;0.20;;;18.20;99.90;;;;;;5012672;28;20235;-51
2022/07/07 08:46:34;;;;;;;0.10;0.10;;;18.40;99.90;;;;;;5013437;28;20276;-52
2022/07/07 08:49:01;;;;;;;0.10;0.10;;;18.50;99.90;;;;;;4995538;28;20204;-50
2022/07/07 08:51:30;;;;;;;0.05;0.05;;;18.40;99.90;;;;;;4995729;28;20173;-53
2022/07/07 08:53:57;;;;;;;0.17;0.00;;;18.70;99.90;;;;;;5013075;28;20173;-51
2022/07/07 08:56:23;;;;;;;0.10;0.10;;;18.90;99.90;;;;;;5013490;28;20169;-51
2022/07/07 08:58:50;;;;;;;0.17;0.17;;;18.80;99.90;;;;;;5013079;28;20185;-54
2022/07/07 09:01:16;;;;;;;0.00;0.00;;;18.70;99.90;;;;;;5013164;28;20590;-54
2022/07/07 09:03:42;;;;;;;0.05;0.05;;;18.80;99.90;;;;;;5013039;28;20678;-53
2022/07/07 09:06:08;;;;;;;0.20;0.10;;;19.20;99.90;;;;;;5012845;28;20183;-53
2022/07/07 09:08:34;;;;;;;0.35;0.10;;;19.30;99.90;;;;;;5013218;28;20589;-52
2022/07/07 09:11:00;;;;;;;1.23;0.40;;;19.30;99.90;;;;;;5016686;28;20233;-54
2022/07/07 09:13:29;;;;;;;0.82;0.45;;;19.20;99.90;;;;;;5016602;28;20176;-50
2022/07/07 09:16:01;;;;;;;0.22;0.22;;;19.00;99.90;;;;;;5016515;28;20168;-50
2022/07/07 09:18:38;;;;;;;0.38;0.15;;;18.70;99.90;;;;;;5016352;28;20271;-50
2022/07/07 09:21:27;;;;;;;0.15;0.15;;;18.50;99.90;;;;;;5016601;28;20180;-50
2022/07/07 09:23:54;;;;;;;1.13;0.32;;;18.10;99.90;;;;;;5016451;28;20226;-50
2022/07/07 09:26:37;;;;;;;1.02;0.20;;;18.00;99.90;;;;;;5016278;28;20176;-50
2022/07/07 09:29:14;;;;;;;0.20;0.20;;;17.70;99.90;;;;;;5016134;28;20231;-52
2022/07/07 09:32:00;;;;;;;0.10;0.10;;;17.60;99.90;;;;;;5016391;28;20561;-51
2022/07/07 09:34:35;;;;;;;0.17;0.17;;;17.40;99.90;;;;;;5016179;28;20176;-50
2022/07/07 09:39:55;;;;;;;0.13;0.10;;;17.80;99.90;;;;;;5016098;28;20190;-51
2022/07/07 09:42:20;;;;;;;0.20;0.20;;;17.90;99.90;;;;;;5016126;28;20511;-50
2022/07/07 09:44:48;;;;;;;0.47;0.20;;;17.90;99.90;;;;;;5015944;28;20211;-51
2022/07/07 09:47:14;;;;;;;0.93;0.65;;;17.80;99.90;;;;;;5015920;28;20187;-53
2022/07/07 09:49:43;;;;;;;0.35;0.10;;;17.90;99.90;;;;;;5015841;28;20177;-51
2022/07/07 09:52:19;;;;;;;0.63;0.10;;;18.00;99.90;;;;;;5015710;28;20271;-52
2022/07/07 09:54:51;;;;;;;0.25;0.10;;;18.10;99.90;;;;;;5015893;28;20183;-52
2022/07/07 09:57:18;;;;;;;0.25;0.10;;;18.30;99.90;;;;;;5015684;28;20180;-52
2022/07/07 09:59:44;;;;;;;0.73;0.20;;;18.50;99.90;;;;;;4998001;28;20630;-50
2022/07/07 10:02:19;;;;;;;0.17;0.10;;;18.50;99.90;;;;;;5015583;28;20696;-50
2022/07/07 10:04:50;;;;;;;0.20;0.20;;;18.40;99.90;;;;;;5015729;28;20196;-53
2022/07/07 10:07:19;;;;;;;0.88;0.10;;;18.20;99.90;;;;;;5015678;28;20187;-50
2022/07/07 10:09:50;;;;;;;0.30;0.20;;;17.70;99.90;;;;;;5015570;28;20200;-50
2022/07/07 10:12:17;;;;;;;0.08;0.08;;;17.60;99.90;;;;;;5015424;28;20227;-50
2022/07/07 10:14:44;;;;;;;0.10;0.10;;;17.40;99.90;;;;;;5015285;28;20227;-50
2022/07/07 10:17:11;;;;;;;0.10;0.10;;;17.30;99.90;;;;;;5015271;28;20204;-51
2022/07/07 10:19:38;;;;;;;0.13;0.13;;;17.40;99.90;;;;;;5015239;28;20218;-50
2022/07/07 10:22:04;;;;;;;0.00;0.00;;;17.70;99.90;;;;;;5015559;28;20176;-50
2022/07/07 10:24:32;;;;;;;0.98;0.55;;;18.00;99.90;;;;;;5015126;28;20639;-52
2022/07/07 10:27:02;;;;;;;0.10;0.10;;;18.30;99.90;;;;;;5015061;28;20191;-53
2022/07/07 10:29:49;;;;;;;0.20;0.20;;;18.90;99.90;;;;;;5015200;28;20180;-50
2022/07/07 10:32:16;;;;;;;0.10;0.10;;;19.00;99.90;;;;;;5014974;28;20622;-51
2022/07/07 10:34:57;;;;;;;0.30;0.10;;;19.00;99.90;;;;;;5015013;28;20177;-52
2022/07/07 10:37:24;;;;;;;0.45;0.10;;;19.00;99.90;;;;;;5014974;28;20168;-50
2022/07/07 10:39:54;;;;;;;0.20;0.10;;;18.80;99.90;;;;;;5014805;28;20177;-51
2022/07/07 10:42:28;;;;;;;1.17;0.20;;;18.70;99.90;;;;;;5015014;28;20169;-51
2022/07/07 10:44:55;;;;;;;0.20;0.20;;;18.30;99.90;;;;;;5014799;28;20704;-53
2022/07/07 10:47:21;;;;;;;0.35;0.20;;;17.80;99.90;;;;;;5014844;28;20268;-51
2022/07/07 10:49:52;;;;;;;0.10;0.10;;;17.30;99.90;;;;;;5014752;28;20248;-49
2022/07/07 10:52:19;;;;;;;0.10;0.10;;;17.10;99.90;;;;;;5014724;28;20680;-52
2022/07/07 10:54:50;;;;;;;0.10;0.10;;;17.00;99.90;;;;;;5014583;28;20172;-50
2022/07/07 10:57:19;;;;;;;0.10;0.10;;;16.90;99.90;;;;;;5014826;28;20646;-50
2022/07/07 11:00:09;;;;;;;1.27;0.52;;;17.50;99.90;;;;;;5014391;28;20250;-53
2022/07/07 11:02:37;;;;;;;0.38;0.30;;;17.80;99.90;;;;;;5014488;28;20708;-53
2022/07/07 11:05:25;;;;;;;0.10;0.10;;;18.30;99.90;;;;;;5014593;28;20219;-53
2022/07/07 11:07:56;;;;;;;0.22;0.20;;;18.70;99.90;;;;;;5014656;28;20180;-54
2022/07/07 11:10:43;;;;;;;0.35;0.20;;;19.20;99.90;;;;;;5014438;28;20247;-50
2022/07/07 11:13:25;;;;;;;0.30;0.22;;;19.50;99.90;;;;;;5004368;28;20208;-51
2022/07/07 11:16:12;;;;;;;0.50;0.50;;;19.20;99.90;;;;;;5014437;28;20215;-52
2022/07/07 11:18:38;;;;;;;0.10;0.10;;;18.70;99.90;;;;;;5013800;28;20594;-53
2022/07/07 11:21:06;;;;;;;0.20;0.20;;;18.50;99.90;;;;;;5014192;28;20181;-53
2022/07/07 11:23:56;;;;;;;0.43;0.40;;;18.20;99.90;;;;;;5014078;28;20206;-50
2022/07/07 11:26:26;;;;;;;0.35;0.10;;;17.80;99.90;;;;;;5014303;28;20177;-52
2022/07/07 11:28:55;;;;;;;1.17;0.47;;;17.70;99.90;;;;;;5014091;28;20219;-53
2022/07/07 11:31:21;;;;;;;0.10;0.10;;;17.70;99.90;;;;;;5013668;28;20180;-52
2022/07/07 11:33:57;;;;;;;0.50;0.30;;;17.90;99.90;;;;;;5013844;28;20250;-53
2022/07/07 11:36:28;;;;;;;0.52;0.50;;;18.20;99.90;;;;;;5014156;28;20525;-50
2022/07/07 11:39:03;;;;;;;0.20;0.20;;;18.80;99.90;;;;;;5014121;28;20211;-51
2022/07/07 11:41:43;;;;;;;0.52;0.20;;;19.00;99.90;;;;;;5013948;28;20637;-52
2022/07/07 11:44:22;;;;;;;0.68;0.25;;;19.00;99.90;;;;;;5013785;28;20291;-52
2022/07/07 11:46:52;;;;;;;0.40;0.30;;;18.90;99.90;;;;;;5013718;28;20180;-52
2022/07/07 11:49:19;;;;;;;0.05;0.05;;;18.80;99.90;;;;;;5014049;28;20183;-49
2022/07/07 11:51:46;;;;;;;1.08;0.45;;;18.50;99.90;;;;;;5013883;28;20200;-52
2022/07/07 11:54:11;;;;;;;0.28;0.20;;;18.70;99.90;;;;;;5013763;28;20291;-52
2022/07/07 11:56:37;;;;;;;0.60;0.10;;;18.90;99.90;;;;;;5013661;28;20696;-50
2022/07/07 11:59:07;;;;;;;0.28;0.10;;;19.00;99.90;;;;;;4996099;28;20176;-51
2022/07/07 12:01:37;;;;;;;0.38;0.20;;;19.00;99.90;;;;;;5013500;28;20257;-49
2022/07/07 12:04:23;;;;;;;0.90;0.30;;;19.10;99.90;;;;;;5013760;28;20208;-49
2022/07/07 12:06:52;;;;;;;0.30;0.22;;;19.00;99.90;;;;;;5013538;28;20180;-51
2022/07/07 12:09:19;;;;;;;0.38;0.20;;;19.20;99.90;;;;;;5013444;28;20200;-51
2022/07/07 12:11:45;;;;;;;0.63;0.30;;;19.30;99.90;;;;;;4996119;28;20222;-50
2022/07/07 12:14:11;;;;;;;0.30;0.30;;;19.50;99.90;;;;;;5013469;28;20654;-53
2022/07/07 12:16:44;;;;;;;0.30;0.30;;;19.40;99.90;;;;;;5013540;28;20188;-52
2022/07/07 12:19:10;;;;;;;1.25;0.50;;;19.10;99.90;;;;;;5013432;28;20534;-52
2022/07/07 12:21:45;;;;;;;0.28;0.28;;;18.90;99.90;;;;;;5013331;28;20176;-52
2022/07/07 12:24:30;;;;;;;0.40;0.25;;;18.70;99.90;;;;;;5013237;28;20211;-53
2022/07/07 12:26:56;;;;;;;0.32;0.32;;;18.30;99.90;;;;;;5013511;28;20238;-50
2022/07/07 12:29:22;;;;;;;0.40;0.30;;;18.00;99.90;;;;;;5013290;28;20275;-52
2022/07/07 12:31:50;;;;;;;0.15;0.15;;;18.20;99.90;;;;;;5013350;28;20250;-53
2022/07/07 12:34:18;;;;;;;0.13;0.13;;;18.40;99.90;;;;;;5013281;28;20181;-50
2022/07/07 12:36:45;;;;;;;0.43;0.13;;;18.60;99.90;;;;;;5013399;28;20200;-52
2022/07/07 12:39:11;;;;;;;0.20;0.20;;;18.90;99.90;;;;;;5013392;28;20187;-53
2022/07/07 12:41:40;;;;;;;0.20;0.20;;;19.10;99.90;;;;;;5013734;28;20176;-49
2022/07/07 12:44:11;;;;;;;0.55;0.20;;;19.00;99.90;;;;;;5014294;28;20294;-52
2022/07/07 12:46:37;;;;;;;1.25;0.32;;;18.80;99.90;;;;;;5017042;28;20185;-49
2022/07/07 12:49:04;;;;;;;0.10;0.10;;;18.40;99.90;;;;;;4999310;28;20184;-51
2022/07/07 12:51:30;;;;;;;0.10;0.10;;;18.30;99.90;;;;;;5017205;28;20263;-52
2022/07/07 12:53:57;;;;;;;0.20;0.20;;;18.30;99.90;;;;;;5017140;28;20173;-51